sensor_id;sensor_type;location;lat;lon;timestamp;temperature;humidity
46552;DHT22;32278;51.810;4.712;2022-10-31T00:01:10;15.10;99.90
46552;DHT22;32278;51.810;4.712;2022-10-31T00:03:36;15.10;99.90
46552;DHT22;32278;51.810;4.712;2022-10-31T00:06:01;15.10;99.90
46552;DHT22;32278;51.810;4.712;2022-10-31T00:08:27;15.10;99.90
46552;DHT22;32278;51.810;4.712;2022-10-31T00:10:53;15.10;99.90
46552;DHT22;32278;51.810;4.712;2022-10-31T00:13:18;15.00;99.90
46552;DHT22;32278;51.810;4.712;2022-10-31T00:15:44;15.10;99.90
46552;DHT22;32278;51.810;4.712;2022-10-31T00:18:10;15.00;99.90
46552;DHT22;32278;51.810;4.712;2022-10-31T00:20:36;15.00;99.90
46552;DHT22;32278;51.810;4.712;2022-10-31T00:23:03;14.90;99.90
46552;DHT22;32278;51.810;4.712;2022-10-31T00:25:32;15.00;99.90
46552;DHT22;32278;51.810;4.712;2022-10-31T00:27:58;14.90;99.90
46552;DHT22;32278;51.810;4.712;2022-10-31T00:30:24;14.80;99.90
46552;DHT22;32278;51.810;4.712;2022-10-31T00:32:49;14.70;99.90
46552;DHT22;32278;51.810;4.712;2022-10-31T00:35:15;14.70;99.90
46552;DHT22;32278;51.810;4.712;2022-10-31T00:37:41;14.80;99.90
46552;DHT22;32278;51.810;4.712;2022-10-31T00:40:07;14.70;99.90
46552;DHT22;32278;51.810;4.712;2022-10-31T00:42:32;14.60;99.90
46552;DHT22;32278;51.810;4.712;2022-10-31T00:44:58;14.60;99.90
46552;DHT22;32278;51.810;4.712;2022-10-31T00:47:23;14.50;99.90
46552;DHT22;32278;51.810;4.712;2022-10-31T00:49:49;14.50;99.90
46552;DHT22;32278;51.810;4.712;2022-10-31T00:52:14;14.60;99.90
46552;DHT22;32278;51.810;4.712;2022-10-31T00:54:40;14.60;99.90
46552;DHT22;32278;51.810;4.712;2022-10-31T00:57:05;14.60;99.90
46552;DHT22;32278;51.810;4.712;2022-10-31T00:59:31;14.60;99.90
46552;DHT22;32278;51.810;4.712;2022-10-31T01:01:57;14.60;99.90
46552;DHT22;32278;51.810;4.712;2022-10-31T01:04:22;14.60;99.90
46552;DHT22;32278;51.810;4.712;2022-10-31T01:06:48;14.60;99.90
46552;DHT22;32278;51.810;4.712;2022-10-31T01:09:13;14.50;99.90
46552;DHT22;32278;51.810;4.712;2022-10-31T01:11:39;14.30;99.90
46552;DHT22;32278;51.810;4.712;2022-10-31T01:14:05;14.30;99.90
46552;DHT22;32278;51.810;4.712;2022-10-31T01:16:30;14.30;99.90
46552;DHT22;32278;51.810;4.712;2022-10-31T01:18:56;14.30;99.90
46552;DHT22;32278;51.810;4.712;2022-10-31T01:21:24;14.20;99.90
46552;DHT22;32278;51.810;4.712;2022-10-31T01:23:52;14.10;99.90
46552;DHT22;32278;51.810;4.712;2022-10-31T01:26:20;14.10;99.90
46552;DHT22;32278;51.810;4.712;2022-10-31T01:28:57;14.00;99.90
46552;DHT22;32278;51.810;4.712;2022-10-31T01:31:26;13.90;99.90
46552;DHT22;32278;51.810;4.712;2022-10-31T01:33:52;13.80;99.90
46552;DHT22;32278;51.810;4.712;2022-10-31T01:36:23;13.70;99.90
46552;DHT22;32278;51.810;4.712;2022-10-31T01:38:51;13.70;99.90
46552;DHT22;32278;51.810;4.712;2022-10-31T01:41:23;13.80;99.90
46552;DHT22;32278;51.810;4.712;2022-10-31T01:43:56;13.90;99.90
46552;DHT22;32278;51.810;4.712;2022-10-31T01:46:25;13.80;99.90
46552;DHT22;32278;51.810;4.712;2022-10-31T01:48:54;13.80;99.90
46552;DHT22;32278;51.810;4.712;2022-10-31T01:51:23;13.80;99.90
46552;DHT22;32278;51.810;4.712;2022-10-31T01:53:52;13.60;99.90
46552;DHT22;32278;51.810;4.712;2022-10-31T01:56:20;13.50;99.90
46552;DHT22;32278;51.810;4.712;2022-10-31T01:58:46;13.50;99.90
46552;DHT22;32278;51.810;4.712;2022-10-31T02:01:13;13.60;99.90
46552;DHT22;32278;51.810;4.712;2022-10-31T02:03:39;13.50;99.90
46552;DHT22;32278;51.810;4.712;2022-10-31T02:06:10;13.50;99.90
46552;DHT22;32278;51.810;4.712;2022-10-31T02:08:39;13.40;99.90
46552;DHT22;32278;51.810;4.712;2022-10-31T02:11:06;13.50;99.90
46552;DHT22;32278;51.810;4.712;2022-10-31T02:13:34;13.50;99.90
46552;DHT22;32278;51.810;4.712;2022-10-31T02:15:59;13.40;99.90
46552;DHT22;32278;51.810;4.712;2022-10-31T02:18:28;13.50;99.90
46552;DHT22;32278;51.810;4.712;2022-10-31T02:21:17;13.50;99.90
46552;DHT22;32278;51.810;4.712;2022-10-31T02:26:45;13.60;99.90
46552;DHT22;32278;51.810;4.712;2022-10-31T02:34:55;13.60;99.90
46552;DHT22;32278;51.810;4.712;2022-10-31T02:40:03;13.60;99.90
46552;DHT22;32278;51.810;4.712;2022-10-31T02:45:21;13.60;99.90
46552;DHT22;32278;51.810;4.712;2022-10-31T02:47:50;13.50;99.90
46552;DHT22;32278;51.810;4.712;2022-10-31T02:50:34;13.40;99.90
46552;DHT22;32278;51.810;4.712;2022-10-31T02:53:02;13.40;99.90
46552;DHT22;32278;51.810;4.712;2022-10-31T02:57:57;13.40;99.90
46552;DHT22;32278;51.810;4.712;2022-10-31T03:00:25;13.60;99.90
46552;DHT22;32278;51.810;4.712;2022-10-31T03:03:02;13.60;99.90
46552;DHT22;32278;51.810;4.712;2022-10-31T03:11:09;13.70;99.90
46552;DHT22;32278;51.810;4.712;2022-10-31T03:13:49;13.80;99.90
46552;DHT22;32278;51.810;4.712;2022-10-31T03:19:11;14.00;99.90
46552;DHT22;32278;51.810;4.712;2022-10-31T03:24:10;14.10;99.90
46552;DHT22;32278;51.810;4.712;2022-10-31T03:26:45;14.00;99.90
46552;DHT22;32278;51.810;4.712;2022-10-31T03:29:16;14.00;99.90
46552;DHT22;32278;51.810;4.712;2022-10-31T03:31:52;14.10;99.90
46552;DHT22;32278;51.810;4.712;2022-10-31T03:34:20;14.00;99.90
46552;DHT22;32278;51.810;4.712;2022-10-31T03:36:49;13.90;99.90
46552;DHT22;32278;51.810;4.712;2022-10-31T03:39:18;13.90;99.90
46552;DHT22;32278;51.810;4.712;2022-10-31T03:41:49;13.90;99.90
46552;DHT22;32278;51.810;4.712;2022-10-31T03:44:19;13.90;99.90
46552;DHT22;32278;51.810;4.712;2022-10-31T03:46:46;14.10;99.90
46552;DHT22;32278;51.810;4.712;2022-10-31T03:49:12;14.00;99.90
46552;DHT22;32278;51.810;4.712;2022-10-31T03:51:46;13.90;99.90
46552;DHT22;32278;51.810;4.712;2022-10-31T03:57:05;14.00;99.90
46552;DHT22;32278;51.810;4.712;2022-10-31T03:59:37;13.80;99.90
46552;DHT22;32278;51.810;4.712;2022-10-31T04:02:13;13.80;99.90
46552;DHT22;32278;51.810;4.712;2022-10-31T04:04:40;13.70;99.90
46552;DHT22;32278;51.810;4.712;2022-10-31T04:07:07;13.70;99.90
46552;DHT22;32278;51.810;4.712;2022-10-31T04:09:36;13.80;99.90
46552;DHT22;32278;51.810;4.712;2022-10-31T04:12:04;13.70;99.90
46552;DHT22;32278;51.810;4.712;2022-10-31T04:14:36;13.70;99.90
46552;DHT22;32278;51.810;4.712;2022-10-31T04:17:06;13.70;99.90
46552;DHT22;32278;51.810;4.712;2022-10-31T04:19:33;13.70;99.90
46552;DHT22;32278;51.810;4.712;2022-10-31T04:21:59;13.70;99.90
46552;DHT22;32278;51.810;4.712;2022-10-31T04:24:24;13.50;99.90
46552;DHT22;32278;51.810;4.712;2022-10-31T04:26:50;13.50;99.90
46552;DHT22;32278;51.810;4.712;2022-10-31T04:29:16;13.50;99.90
46552;DHT22;32278;51.810;4.712;2022-10-31T04:31:41;13.50;99.90
46552;DHT22;32278;51.810;4.712;2022-10-31T04:34:07;13.50;99.90
46552;DHT22;32278;51.810;4.712;2022-10-31T04:36:32;13.60;99.90
46552;DHT22;32278;51.810;4.712;2022-10-31T04:38:58;13.60;99.90
46552;DHT22;32278;51.810;4.712;2022-10-31T04:41:23;13.60;99.90
46552;DHT22;32278;51.810;4.712;2022-10-31T04:43:49;13.50;99.90
46552;DHT22;32278;51.810;4.712;2022-10-31T04:46:15;13.40;99.90
46552;DHT22;32278;51.810;4.712;2022-10-31T04:48:40;13.50;99.90
46552;DHT22;32278;51.810;4.712;2022-10-31T04:51:06;13.50;99.90
46552;DHT22;32278;51.810;4.712;2022-10-31T04:53:32;13.50;99.90
46552;DHT22;32278;51.810;4.712;2022-10-31T04:55:58;13.40;99.90
46552;DHT22;32278;51.810;4.712;2022-10-31T04:58:26;13.30;99.90
46552;DHT22;32278;51.810;4.712;2022-10-31T05:00:55;13.20;99.90
46552;DHT22;32278;51.810;4.712;2022-10-31T05:03:21;13.20;99.90
46552;DHT22;32278;51.810;4.712;2022-10-31T05:05:47;13.20;99.90
46552;DHT22;32278;51.810;4.712;2022-10-31T05:08:13;13.30;99.90
46552;DHT22;32278;51.810;4.712;2022-10-31T05:10:39;13.40;99.90
46552;DHT22;32278;51.810;4.712;2022-10-31T05:13:05;13.20;99.90
46552;DHT22;32278;51.810;4.712;2022-10-31T05:15:31;13.20;99.90
46552;DHT22;32278;51.810;4.712;2022-10-31T05:17:57;13.30;99.90
46552;DHT22;32278;51.810;4.712;2022-10-31T05:20:28;13.10;99.90
46552;DHT22;32278;51.810;4.712;2022-10-31T05:22:56;13.20;99.90
46552;DHT22;32278;51.810;4.712;2022-10-31T05:25:23;13.20;99.90
46552;DHT22;32278;51.810;4.712;2022-10-31T05:27:50;13.30;99.90
46552;DHT22;32278;51.810;4.712;2022-10-31T05:30:19;13.20;99.90
46552;DHT22;32278;51.810;4.712;2022-10-31T05:32:47;13.20;99.90
46552;DHT22;32278;51.810;4.712;2022-10-31T05:35:15;13.10;99.90
46552;DHT22;32278;51.810;4.712;2022-10-31T05:37:41;13.10;99.90
46552;DHT22;32278;51.810;4.712;2022-10-31T05:40:09;13.10;99.90
46552;DHT22;32278;51.810;4.712;2022-10-31T05:42:37;13.10;99.90
46552;DHT22;32278;51.810;4.712;2022-10-31T05:45:03;13.10;99.90
46552;DHT22;32278;51.810;4.712;2022-10-31T05:47:29;13.30;99.90
46552;DHT22;32278;51.810;4.712;2022-10-31T05:49:54;13.40;99.90
46552;DHT22;32278;51.810;4.712;2022-10-31T05:52:20;13.30;99.90
46552;DHT22;32278;51.810;4.712;2022-10-31T05:54:46;13.40;99.90
46552;DHT22;32278;51.810;4.712;2022-10-31T05:57:11;13.40;99.90
46552;DHT22;32278;51.810;4.712;2022-10-31T05:59:37;13.40;99.90
46552;DHT22;32278;51.810;4.712;2022-10-31T06:02:03;13.50;99.90
46552;DHT22;32278;51.810;4.712;2022-10-31T06:04:29;13.30;99.90
46552;DHT22;32278;51.810;4.712;2022-10-31T06:06:56;13.30;99.90
46552;DHT22;32278;51.810;4.712;2022-10-31T06:09:22;13.40;99.90
46552;DHT22;32278;51.810;4.712;2022-10-31T06:11:47;13.40;99.90
46552;DHT22;32278;51.810;4.712;2022-10-31T06:14:13;13.30;99.90
46552;DHT22;32278;51.810;4.712;2022-10-31T06:16:39;13.30;99.90
46552;DHT22;32278;51.810;4.712;2022-10-31T06:19:04;13.30;99.90
46552;DHT22;32278;51.810;4.712;2022-10-31T06:21:30;13.10;99.90
46552;DHT22;32278;51.810;4.712;2022-10-31T06:23:55;13.00;99.90
46552;DHT22;32278;51.810;4.712;2022-10-31T06:26:21;13.00;99.90
46552;DHT22;32278;51.810;4.712;2022-10-31T06:28:46;13.10;99.90
46552;DHT22;32278;51.810;4.712;2022-10-31T06:31:12;13.10;99.90
46552;DHT22;32278;51.810;4.712;2022-10-31T06:33:38;13.10;99.90
46552;DHT22;32278;51.810;4.712;2022-10-31T06:36:03;13.00;99.90
46552;DHT22;32278;51.810;4.712;2022-10-31T06:38:29;13.00;99.90
46552;DHT22;32278;51.810;4.712;2022-10-31T06:40:55;13.00;99.90
46552;DHT22;32278;51.810;4.712;2022-10-31T06:43:21;13.00;99.90
46552;DHT22;32278;51.810;4.712;2022-10-31T06:45:47;13.00;99.90
46552;DHT22;32278;51.810;4.712;2022-10-31T06:48:12;13.00;99.90
46552;DHT22;32278;51.810;4.712;2022-10-31T06:50:38;13.00;99.90
46552;DHT22;32278;51.810;4.712;2022-10-31T06:53:04;12.90;99.90
46552;DHT22;32278;51.810;4.712;2022-10-31T06:55:29;12.80;99.90
46552;DHT22;32278;51.810;4.712;2022-10-31T06:57:57;12.90;99.90
46552;DHT22;32278;51.810;4.712;2022-10-31T07:00:24;13.00;99.90
46552;DHT22;32278;51.810;4.712;2022-10-31T07:05:19;13.00;99.90
46552;DHT22;32278;51.810;4.712;2022-10-31T07:07:45;13.30;99.90
46552;DHT22;32278;51.810;4.712;2022-10-31T07:10:10;13.30;99.90
46552;DHT22;32278;51.810;4.712;2022-10-31T07:12:36;13.20;99.90
46552;DHT22;32278;51.810;4.712;2022-10-31T07:15:02;13.30;99.90
46552;DHT22;32278;51.810;4.712;2022-10-31T07:17:27;13.40;99.90
46552;DHT22;32278;51.810;4.712;2022-10-31T07:19:53;13.40;99.90
46552;DHT22;32278;51.810;4.712;2022-10-31T07:22:18;13.40;99.90
46552;DHT22;32278;51.810;4.712;2022-10-31T07:24:44;13.40;99.90
46552;DHT22;32278;51.810;4.712;2022-10-31T07:27:09;13.50;99.90
46552;DHT22;32278;51.810;4.712;2022-10-31T07:29:35;13.70;99.90
46552;DHT22;32278;51.810;4.712;2022-10-31T07:32:00;13.80;99.90
46552;DHT22;32278;51.810;4.712;2022-10-31T07:34:27;13.90;99.90
46552;DHT22;32278;51.810;4.712;2022-10-31T07:36:52;13.80;99.90
46552;DHT22;32278;51.810;4.712;2022-10-31T07:39:18;13.80;99.90
46552;DHT22;32278;51.810;4.712;2022-10-31T07:41:43;13.80;99.90
46552;DHT22;32278;51.810;4.712;2022-10-31T07:44:09;13.80;99.90
46552;DHT22;32278;51.810;4.712;2022-10-31T07:46:34;13.90;99.90
46552;DHT22;32278;51.810;4.712;2022-10-31T07:49:00;14.00;99.90
46552;DHT22;32278;51.810;4.712;2022-10-31T07:51:25;14.10;99.90
46552;DHT22;32278;51.810;4.712;2022-10-31T07:53:51;14.20;99.90
46552;DHT22;32278;51.810;4.712;2022-10-31T07:56:17;14.30;99.90
46552;DHT22;32278;51.810;4.712;2022-10-31T07:58:43;14.50;99.90
46552;DHT22;32278;51.810;4.712;2022-10-31T08:01:08;14.60;99.90
46552;DHT22;32278;51.810;4.712;2022-10-31T08:03:34;14.70;99.90
46552;DHT22;32278;51.810;4.712;2022-10-31T08:06:00;14.90;99.90
46552;DHT22;32278;51.810;4.712;2022-10-31T08:08:25;14.90;99.90
46552;DHT22;32278;51.810;4.712;2022-10-31T08:10:53;15.10;99.90
46552;DHT22;32278;51.810;4.712;2022-10-31T08:13:19;15.20;99.90
46552;DHT22;32278;51.810;4.712;2022-10-31T08:15:45;15.20;99.90
46552;DHT22;32278;51.810;4.712;2022-10-31T08:18:15;15.10;99.90
46552;DHT22;32278;51.810;4.712;2022-10-31T08:20:41;15.10;99.90
46552;DHT22;32278;51.810;4.712;2022-10-31T08:23:09;15.20;99.90
46552;DHT22;32278;51.810;4.712;2022-10-31T08:25:36;15.30;99.90
46552;DHT22;32278;51.810;4.712;2022-10-31T08:28:02;15.30;99.90
46552;DHT22;32278;51.810;4.712;2022-10-31T08:30:31;15.30;99.90
46552;DHT22;32278;51.810;4.712;2022-10-31T08:35:30;15.30;99.90
46552;DHT22;32278;51.810;4.712;2022-10-31T08:37:57;15.30;99.90
46552;DHT22;32278;51.810;4.712;2022-10-31T08:40:23;15.30;99.90
46552;DHT22;32278;51.810;4.712;2022-10-31T08:42:59;15.30;99.90
46552;DHT22;32278;51.810;4.712;2022-10-31T08:45:25;15.30;99.90
46552;DHT22;32278;51.810;4.712;2022-10-31T08:47:51;15.30;99.90
46552;DHT22;32278;51.810;4.712;2022-10-31T08:50:17;15.30;99.90
46552;DHT22;32278;51.810;4.712;2022-10-31T08:52:42;15.30;99.90
46552;DHT22;32278;51.810;4.712;2022-10-31T08:55:08;15.50;99.90
46552;DHT22;32278;51.810;4.712;2022-10-31T08:57:34;15.70;99.90
46552;DHT22;32278;51.810;4.712;2022-10-31T08:59:59;15.60;99.90
46552;DHT22;32278;51.810;4.712;2022-10-31T09:02:25;15.70;99.90
46552;DHT22;32278;51.810;4.712;2022-10-31T09:04:50;15.70;99.90
46552;DHT22;32278;51.810;4.712;2022-10-31T09:07:16;15.70;99.90
46552;DHT22;32278;51.810;4.712;2022-10-31T09:09:41;15.80;99.90
46552;DHT22;32278;51.810;4.712;2022-10-31T09:12:07;15.90;99.90
46552;DHT22;32278;51.810;4.712;2022-10-31T09:14:33;16.00;99.90
46552;DHT22;32278;51.810;4.712;2022-10-31T09:16:58;16.10;99.90
46552;DHT22;32278;51.810;4.712;2022-10-31T09:19:24;16.20;99.90
46552;DHT22;32278;51.810;4.712;2022-10-31T09:21:52;16.30;99.90
46552;DHT22;32278;51.810;4.712;2022-10-31T09:24:18;16.10;99.90
46552;DHT22;32278;51.810;4.712;2022-10-31T09:26:44;16.10;99.90
46552;DHT22;32278;51.810;4.712;2022-10-31T09:29:09;16.10;99.90
46552;DHT22;32278;51.810;4.712;2022-10-31T09:31:35;16.30;99.90
46552;DHT22;32278;51.810;4.712;2022-10-31T09:34:01;16.40;99.90
46552;DHT22;32278;51.810;4.712;2022-10-31T09:36:27;16.50;99.90
46552;DHT22;32278;51.810;4.712;2022-10-31T09:38:52;16.70;99.90
46552;DHT22;32278;51.810;4.712;2022-10-31T09:44:22;16.40;99.90
46552;DHT22;32278;51.810;4.712;2022-10-31T09:52:24;16.30;99.90
46552;DHT22;32278;51.810;4.712;2022-10-31T09:54:58;16.30;99.90
46552;DHT22;32278;51.810;4.712;2022-10-31T09:57:29;16.40;99.90
46552;DHT22;32278;51.810;4.712;2022-10-31T09:59:56;16.50;99.90
46552;DHT22;32278;51.810;4.712;2022-10-31T10:02:38;16.70;99.90
46552;DHT22;32278;51.810;4.712;2022-10-31T10:05:12;16.90;99.90
46552;DHT22;32278;51.810;4.712;2022-10-31T10:13:28;16.80;99.90
46552;DHT22;32278;51.810;4.712;2022-10-31T10:16:22;16.90;99.90
46552;DHT22;32278;51.810;4.712;2022-10-31T10:30:03;17.00;99.90
46552;DHT22;32278;51.810;4.712;2022-10-31T10:32:31;17.10;99.90
46552;DHT22;32278;51.810;4.712;2022-10-31T10:37:40;17.10;99.90
46552;DHT22;32278;51.810;4.712;2022-10-31T10:40:23;17.30;99.90
46552;DHT22;32278;51.810;4.712;2022-10-31T10:45:40;17.40;99.90
46552;DHT22;32278;51.810;4.712;2022-10-31T10:48:45;17.60;99.90
46552;DHT22;32278;51.810;4.712;2022-10-31T10:51:22;17.60;99.90
46552;DHT22;32278;51.810;4.712;2022-10-31T10:59:19;17.80;99.90
46552;DHT22;32278;51.810;4.712;2022-10-31T11:01:46;17.80;99.90
46552;DHT22;32278;51.810;4.712;2022-10-31T11:06:57;17.70;99.90
46552;DHT22;32278;51.810;4.712;2022-10-31T11:09:22;17.60;99.90
46552;DHT22;32278;51.810;4.712;2022-10-31T11:11:48;17.60;99.90
46552;DHT22;32278;51.810;4.712;2022-10-31T11:14:15;17.60;99.90
46552;DHT22;32278;51.810;4.712;2022-10-31T11:16:48;17.40;99.90
46552;DHT22;32278;51.810;4.712;2022-10-31T11:19:25;17.30;99.90
46552;DHT22;32278;51.810;4.712;2022-10-31T11:21:53;17.40;99.90
46552;DHT22;32278;51.810;4.712;2022-10-31T11:24:21;17.40;99.90
46552;DHT22;32278;51.810;4.712;2022-10-31T11:26:48;17.40;99.90
46552;DHT22;32278;51.810;4.712;2022-10-31T11:29:19;17.50;99.90
46552;DHT22;32278;51.810;4.712;2022-10-31T11:31:46;17.50;99.90
46552;DHT22;32278;51.810;4.712;2022-10-31T11:37:02;17.50;99.90
46552;DHT22;32278;51.810;4.712;2022-10-31T11:39:28;17.70;99.90
46552;DHT22;32278;51.810;4.712;2022-10-31T11:41:55;17.70;99.90
46552;DHT22;32278;51.810;4.712;2022-10-31T11:44:27;17.70;99.90
46552;DHT22;32278;51.810;4.712;2022-10-31T11:47:00;17.80;99.90
46552;DHT22;32278;51.810;4.712;2022-10-31T11:49:35;17.80;99.90
46552;DHT22;32278;51.810;4.712;2022-10-31T11:52:29;17.80;99.90
46552;DHT22;32278;51.810;4.712;2022-10-31T11:55:00;17.90;99.90
46552;DHT22;32278;51.810;4.712;2022-10-31T11:57:32;17.70;99.90
46552;DHT22;32278;51.810;4.712;2022-10-31T12:00:04;17.60;99.90
46552;DHT22;32278;51.810;4.712;2022-10-31T12:02:30;17.70;99.90
46552;DHT22;32278;51.810;4.712;2022-10-31T12:05:08;17.80;99.90
46552;DHT22;32278;51.810;4.712;2022-10-31T12:07:36;17.80;99.90
46552;DHT22;32278;51.810;4.712;2022-10-31T12:10:10;17.70;99.90
46552;DHT22;32278;51.810;4.712;2022-10-31T12:13:05;17.80;99.90
46552;DHT22;32278;51.810;4.712;2022-10-31T12:15:36;17.90;99.90
46552;DHT22;32278;51.810;4.712;2022-10-31T12:18:37;18.20;99.90
46552;DHT22;32278;51.810;4.712;2022-10-31T12:21:24;18.20;99.90
46552;DHT22;32278;51.810;4.712;2022-10-31T12:24:16;18.20;99.90
46552;DHT22;32278;51.810;4.712;2022-10-31T12:30:37;18.10;99.90
46552;DHT22;32278;51.810;4.712;2022-10-31T12:33:05;18.20;99.90
46552;DHT22;32278;51.810;4.712;2022-10-31T12:38:39;18.40;99.90
46552;DHT22;32278;51.810;4.712;2022-10-31T12:44:05;18.50;99.90
46552;DHT22;32278;51.810;4.712;2022-10-31T12:49:40;18.30;99.90
46552;DHT22;32278;51.810;4.712;2022-10-31T12:59:56;17.90;99.90
46552;DHT22;32278;51.810;4.712;2022-10-31T13:07:36;17.90;99.90
46552;DHT22;32278;51.810;4.712;2022-10-31T13:13:24;17.90;99.90
46552;DHT22;32278;51.810;4.712;2022-10-31T13:15:55;17.90;99.90
46552;DHT22;32278;51.810;4.712;2022-10-31T13:18:42;18.00;99.90
46552;DHT22;32278;51.810;4.712;2022-10-31T13:21:13;18.10;99.90
46552;DHT22;32278;51.810;4.712;2022-10-31T13:23:40;18.10;99.90
46552;DHT22;32278;51.810;4.712;2022-10-31T13:26:10;18.00;99.90
46552;DHT22;32278;51.810;4.712;2022-10-31T13:28:47;17.90;99.90
46552;DHT22;32278;51.810;4.712;2022-10-31T13:31:13;17.80;99.90
46552;DHT22;32278;51.810;4.712;2022-10-31T13:33:48;17.90;99.90
46552;DHT22;32278;51.810;4.712;2022-10-31T13:36:38;17.90;99.90
46552;DHT22;32278;51.810;4.712;2022-10-31T13:44:27;18.10;99.90
46552;DHT22;32278;51.810;4.712;2022-10-31T13:46:55;18.10;99.90
46552;DHT22;32278;51.810;4.712;2022-10-31T13:49:35;18.00;99.90
46552;DHT22;32278;51.810;4.712;2022-10-31T13:54:47;18.10;99.90
46552;DHT22;32278;51.810;4.712;2022-10-31T13:57:31;18.00;99.90
46552;DHT22;32278;51.810;4.712;2022-10-31T14:02:34;18.00;99.90
46552;DHT22;32278;51.810;4.712;2022-10-31T14:07:31;18.10;99.90
46552;DHT22;32278;51.810;4.712;2022-10-31T14:12:41;18.10;99.90
46552;DHT22;32278;51.810;4.712;2022-10-31T14:15:27;18.10;99.90
46552;DHT22;32278;51.810;4.712;2022-10-31T14:17:58;18.00;99.90
46552;DHT22;32278;51.810;4.712;2022-10-31T14:20:45;18.20;99.90
46552;DHT22;32278;51.810;4.712;2022-10-31T14:23:39;18.10;99.90
46552;DHT22;32278;51.810;4.712;2022-10-31T14:33:54;18.10;99.90
46552;DHT22;32278;51.810;4.712;2022-10-31T14:45:17;18.10;99.90
46552;DHT22;32278;51.810;4.712;2022-10-31T14:48:10;18.10;99.90
46552;DHT22;32278;51.810;4.712;2022-10-31T14:53:12;18.10;99.90
46552;DHT22;32278;51.810;4.712;2022-10-31T14:55:43;18.10;99.90
46552;DHT22;32278;51.810;4.712;2022-10-31T14:58:17;18.20;99.90
46552;DHT22;32278;51.810;4.712;2022-10-31T15:00:44;18.10;99.90
46552;DHT22;32278;51.810;4.712;2022-10-31T15:03:16;18.10;99.90
46552;DHT22;32278;51.810;4.712;2022-10-31T15:05:50;18.10;99.90
46552;DHT22;32278;51.810;4.712;2022-10-31T15:10:57;18.10;99.90
46552;DHT22;32278;51.810;4.712;2022-10-31T15:13:23;18.20;99.90
46552;DHT22;32278;51.810;4.712;2022-10-31T15:15:54;18.20;99.90
46552;DHT22;32278;51.810;4.712;2022-10-31T15:18:25;18.10;99.90
46552;DHT22;32278;51.810;4.712;2022-10-31T15:20:52;18.10;99.90
46552;DHT22;32278;51.810;4.712;2022-10-31T15:23:27;18.20;99.90
46552;DHT22;32278;51.810;4.712;2022-10-31T15:26:05;18.20;99.90
46552;DHT22;32278;51.810;4.712;2022-10-31T15:28:31;18.20;99.90
46552;DHT22;32278;51.810;4.712;2022-10-31T15:30:59;18.20;99.90
46552;DHT22;32278;51.810;4.712;2022-10-31T15:33:31;18.10;99.90
46552;DHT22;32278;51.810;4.712;2022-10-31T15:35:59;18.10;99.90
46552;DHT22;32278;51.810;4.712;2022-10-31T15:38:25;18.10;99.90
46552;DHT22;32278;51.810;4.712;2022-10-31T15:41:03;18.10;99.90
46552;DHT22;32278;51.810;4.712;2022-10-31T15:43:35;18.00;99.90
46552;DHT22;32278;51.810;4.712;2022-10-31T15:46:02;18.00;99.90
46552;DHT22;32278;51.810;4.712;2022-10-31T15:48:29;17.90;99.90
46552;DHT22;32278;51.810;4.712;2022-10-31T15:50:57;17.90;99.90
46552;DHT22;32278;51.810;4.712;2022-10-31T15:53:25;17.80;99.90
46552;DHT22;32278;51.810;4.712;2022-10-31T15:55:57;17.80;99.90
46552;DHT22;32278;51.810;4.712;2022-10-31T15:58:24;17.80;99.90
46552;DHT22;32278;51.810;4.712;2022-10-31T16:00:59;17.70;99.90
46552;DHT22;32278;51.810;4.712;2022-10-31T16:03:28;17.70;99.90
46552;DHT22;32278;51.810;4.712;2022-10-31T16:05:56;17.60;99.90
46552;DHT22;32278;51.810;4.712;2022-10-31T16:11:15;17.50;99.90
46552;DHT22;32278;51.810;4.712;2022-10-31T16:13:58;17.50;99.90
46552;DHT22;32278;51.810;4.712;2022-10-31T16:16:25;17.40;99.90
46552;DHT22;32278;51.810;4.712;2022-10-31T16:18:52;17.40;99.90
46552;DHT22;32278;51.810;4.712;2022-10-31T16:21:28;17.30;99.90
46552;DHT22;32278;51.810;4.712;2022-10-31T16:23:59;17.30;99.90
46552;DHT22;32278;51.810;4.712;2022-10-31T16:26:26;17.30;99.90
46552;DHT22;32278;51.810;4.712;2022-10-31T16:28:54;17.20;99.90
46552;DHT22;32278;51.810;4.712;2022-10-31T16:31:37;17.20;99.90
46552;DHT22;32278;51.810;4.712;2022-10-31T16:34:15;17.30;99.90
46552;DHT22;32278;51.810;4.712;2022-10-31T16:36:42;17.20;99.90
46552;DHT22;32278;51.810;4.712;2022-10-31T16:39:09;17.20;99.90
46552;DHT22;32278;51.810;4.712;2022-10-31T16:41:43;17.10;99.90
46552;DHT22;32278;51.810;4.712;2022-10-31T16:44:21;17.00;99.90
46552;DHT22;32278;51.810;4.712;2022-10-31T16:46:47;17.10;99.90
46552;DHT22;32278;51.810;4.712;2022-10-31T16:49:13;17.00;99.90
46552;DHT22;32278;51.810;4.712;2022-10-31T16:51:41;17.00;99.90
46552;DHT22;32278;51.810;4.712;2022-10-31T16:54:06;16.90;99.90
46552;DHT22;32278;51.810;4.712;2022-10-31T16:56:36;16.90;99.90
46552;DHT22;32278;51.810;4.712;2022-10-31T16:59:05;16.90;99.90
46552;DHT22;32278;51.810;4.712;2022-10-31T17:01:32;16.80;99.90
46552;DHT22;32278;51.810;4.712;2022-10-31T17:04:00;16.80;99.90
46552;DHT22;32278;51.810;4.712;2022-10-31T17:06:26;16.80;99.90
46552;DHT22;32278;51.810;4.712;2022-10-31T17:08:53;16.70;99.90
46552;DHT22;32278;51.810;4.712;2022-10-31T17:11:21;16.70;99.90
46552;DHT22;32278;51.810;4.712;2022-10-31T17:13:47;16.70;99.90
46552;DHT22;32278;51.810;4.712;2022-10-31T17:16:14;16.70;99.90
46552;DHT22;32278;51.810;4.712;2022-10-31T17:18:40;16.60;99.90
46552;DHT22;32278;51.810;4.712;2022-10-31T17:23:37;16.60;99.90
46552;DHT22;32278;51.810;4.712;2022-10-31T17:26:03;16.60;99.90
46552;DHT22;32278;51.810;4.712;2022-10-31T17:28:30;16.50;99.90
46552;DHT22;32278;51.810;4.712;2022-10-31T17:30:56;16.50;99.90
46552;DHT22;32278;51.810;4.712;2022-10-31T17:33:23;16.50;99.90
46552;DHT22;32278;51.810;4.712;2022-10-31T17:35:49;16.50;99.90
46552;DHT22;32278;51.810;4.712;2022-10-31T17:38:14;16.50;99.90
46552;DHT22;32278;51.810;4.712;2022-10-31T17:40:40;16.50;99.90
46552;DHT22;32278;51.810;4.712;2022-10-31T17:43:10;16.60;99.90
46552;DHT22;32278;51.810;4.712;2022-10-31T17:45:39;16.60;99.90
46552;DHT22;32278;51.810;4.712;2022-10-31T17:48:05;16.60;99.90
46552;DHT22;32278;51.810;4.712;2022-10-31T17:50:31;16.60;99.90
46552;DHT22;32278;51.810;4.712;2022-10-31T17:52:57;16.50;99.90
46552;DHT22;32278;51.810;4.712;2022-10-31T17:55:23;16.60;99.90
46552;DHT22;32278;51.810;4.712;2022-10-31T17:57:49;16.50;99.90
46552;DHT22;32278;51.810;4.712;2022-10-31T18:00:17;16.40;99.90
46552;DHT22;32278;51.810;4.712;2022-10-31T18:02:43;16.40;99.90
46552;DHT22;32278;51.810;4.712;2022-10-31T18:05:09;16.40;99.90
46552;DHT22;32278;51.810;4.712;2022-10-31T18:07:34;16.30;99.90
46552;DHT22;32278;51.810;4.712;2022-10-31T18:10:00;16.30;99.90